sensor_id;sensor_type;location;lat;lon;timestamp;P1;durP1;ratioP1;P2;durP2;ratioP2
23148;SDS011;11743;51.228;22.498;2022-08-03T00:00:06;6.82;;;3.85;;
23148;SDS011;11743;51.228;22.498;2022-08-03T00:00:28;5.88;;;3.90;;
23148;SDS011;11743;51.228;22.498;2022-08-03T00:00:51;5.15;;;3.97;;
23148;SDS011;11743;51.228;22.498;2022-08-03T00:01:17;7.63;;;4.15;;
23148;SDS011;11743;51.228;22.498;2022-08-03T00:01:39;7.68;;;4.03;;
23148;SDS011;11743;51.228;22.498;2022-08-03T00:02:02;5.78;;;3.75;;
23148;SDS011;11743;51.228;22.498;2022-08-03T00:02:28;6.07;;;3.88;;
23148;SDS011;11743;51.228;22.498;2022-08-03T00:02:50;6.68;;;4.13;;
23148;SDS011;11743;51.228;22.498;2022-08-03T00:03:12;7.50;;;3.97;;
23148;SDS011;11743;51.228;22.498;2022-08-03T00:03:34;7.13;;;3.70;;
23148;SDS011;11743;51.228;22.498;2022-08-03T00:03:56;8.20;;;3.72;;
23148;SDS011;11743;51.228;22.498;2022-08-03T00:04:17;6.82;;;4.10;;
23148;SDS011;11743;51.228;22.498;2022-08-03T00:04:39;5.00;;;3.78;;
23148;SDS011;11743;51.228;22.498;2022-08-03T00:05:02;4.40;;;3.45;;
23148;SDS011;11743;51.228;22.498;2022-08-03T00:05:24;5.60;;;3.60;;
23148;SDS011;11743;51.228;22.498;2022-08-03T00:05:46;5.70;;;3.78;;
23148;SDS011;11743;51.228;22.498;2022-08-03T00:06:25;6.63;;;4.13;;
23148;SDS011;11743;51.228;22.498;2022-08-03T00:06:47;5.68;;;3.80;;
23148;SDS011;11743;51.228;22.498;2022-08-03T00:07:08;6.32;;;3.78;;
23148;SDS011;11743;51.228;22.498;2022-08-03T00:07:30;6.07;;;3.90;;
23148;SDS011;11743;51.228;22.498;2022-08-03T00:07:52;5.78;;;3.85;;
23148;SDS011;11743;51.228;22.498;2022-08-03T00:08:14;7.30;;;3.78;;
23148;SDS011;11743;51.228;22.498;2022-08-03T00:08:39;5.95;;;3.92;;
23148;SDS011;11743;51.228;22.498;2022-08-03T00:09:02;5.15;;;3.85;;
23148;SDS011;11743;51.228;22.498;2022-08-03T00:09:25;6.15;;;3.95;;
23148;SDS011;11743;51.228;22.498;2022-08-03T00:09:55;6.18;;;3.95;;
23148;SDS011;11743;51.228;22.498;2022-08-03T00:10:17;7.15;;;4.15;;
23148;SDS011;11743;51.228;22.498;2022-08-03T00:10:39;5.88;;;3.97;;
23148;SDS011;11743;51.228;22.498;2022-08-03T00:11:02;4.55;;;3.90;;
23148;SDS011;11743;51.228;22.498;2022-08-03T00:11:27;6.03;;;3.60;;
23148;SDS011;11743;51.228;22.498;2022-08-03T00:11:48;6.55;;;3.65;;
23148;SDS011;11743;51.228;22.498;2022-08-03T00:12:11;6.50;;;4.10;;
23148;SDS011;11743;51.228;22.498;2022-08-03T00:12:33;6.68;;;3.63;;
23148;SDS011;11743;51.228;22.498;2022-08-03T00:12:56;7.80;;;4.07;;
23148;SDS011;11743;51.228;22.498;2022-08-03T00:13:18;4.88;;;3.72;;
23148;SDS011;11743;51.228;22.498;2022-08-03T00:13:40;6.13;;;4.10;;
23148;SDS011;11743;51.228;22.498;2022-08-03T00:14:02;7.40;;;3.88;;
23148;SDS011;11743;51.228;22.498;2022-08-03T00:14:25;5.75;;;3.80;;
23148;SDS011;11743;51.228;22.498;2022-08-03T00:14:47;5.43;;;3.63;;
23148;SDS011;11743;51.228;22.498;2022-08-03T00:15:09;5.93;;;3.92;;
23148;SDS011;11743;51.228;22.498;2022-08-03T00:15:38;6.47;;;3.72;;
23148;SDS011;11743;51.228;22.498;2022-08-03T00:16:01;7.55;;;3.75;;
23148;SDS011;11743;51.228;22.498;2022-08-03T00:16:23;7.23;;;4.13;;
23148;SDS011;11743;51.228;22.498;2022-08-03T00:16:46;6.75;;;4.20;;
23148;SDS011;11743;51.228;22.498;2022-08-03T00:17:08;5.20;;;4.00;;
23148;SDS011;11743;51.228;22.498;2022-08-03T00:17:30;6.63;;;4.20;;
23148;SDS011;11743;51.228;22.498;2022-08-03T00:18:12;5.97;;;3.75;;
23148;SDS011;11743;51.228;22.498;2022-08-03T00:18:34;5.30;;;3.80;;
23148;SDS011;11743;51.228;22.498;2022-08-03T00:18:55;6.18;;;3.97;;
23148;SDS011;11743;51.228;22.498;2022-08-03T00:19:17;5.80;;;3.90;;
23148;SDS011;11743;51.228;22.498;2022-08-03T00:19:39;5.63;;;4.20;;
23148;SDS011;11743;51.228;22.498;2022-08-03T00:20:01;5.60;;;4.05;;
23148;SDS011;11743;51.228;22.498;2022-08-03T00:20:23;7.63;;;4.10;;
23148;SDS011;11743;51.228;22.498;2022-08-03T00:20:45;7.03;;;4.07;;
23148;SDS011;11743;51.228;22.498;2022-08-03T00:21:07;4.70;;;3.50;;
23148;SDS011;11743;51.228;22.498;2022-08-03T00:21:29;6.07;;;4.10;;
23148;SDS011;11743;51.228;22.498;2022-08-03T00:21:51;7.30;;;4.30;;
23148;SDS011;11743;51.228;22.498;2022-08-03T00:22:13;5.97;;;4.00;;
23148;SDS011;11743;51.228;22.498;2022-08-03T00:22:36;5.57;;;4.15;;
23148;SDS011;11743;51.228;22.498;2022-08-03T00:22:58;5.25;;;3.80;;
23148;SDS011;11743;51.228;22.498;2022-08-03T00:23:20;5.68;;;3.90;;
23148;SDS011;11743;51.228;22.498;2022-08-03T00:23:42;6.10;;;4.10;;
23148;SDS011;11743;51.228;22.498;2022-08-03T00:24:12;6.60;;;4.22;;
23148;SDS011;11743;51.228;22.498;2022-08-03T00:24:34;5.28;;;4.05;;
23148;SDS011;11743;51.228;22.498;2022-08-03T00:24:56;5.13;;;3.92;;
23148;SDS011;11743;51.228;22.498;2022-08-03T00:25:18;6.00;;;4.30;;
23148;SDS011;11743;51.228;22.498;2022-08-03T00:25:40;5.50;;;4.10;;
23148;SDS011;11743;51.228;22.498;2022-08-03T00:26:02;5.45;;;4.00;;
23148;SDS011;11743;51.228;22.498;2022-08-03T00:26:24;5.60;;;3.85;;
23148;SDS011;11743;51.228;22.498;2022-08-03T00:26:46;5.40;;;4.05;;
23148;SDS011;11743;51.228;22.498;2022-08-03T00:27:08;5.28;;;4.05;;
23148;SDS011;11743;51.228;22.498;2022-08-03T00:27:30;5.05;;;3.85;;
23148;SDS011;11743;51.228;22.498;2022-08-03T00:27:55;6.40;;;4.10;;
23148;SDS011;11743;51.228;22.498;2022-08-03T00:28:17;6.05;;;4.10;;
23148;SDS011;11743;51.228;22.498;2022-08-03T00:28:39;6.80;;;3.80;;
23148;SDS011;11743;51.228;22.498;2022-08-03T00:29:02;6.90;;;4.10;;
23148;SDS011;11743;51.228;22.498;2022-08-03T00:29:24;7.00;;;3.95;;
23148;SDS011;11743;51.228;22.498;2022-08-03T00:29:46;5.93;;;3.72;;
23148;SDS011;11743;51.228;22.498;2022-08-03T00:30:20;6.72;;;3.90;;
23148;SDS011;11743;51.228;22.498;2022-08-03T00:30:47;6.93;;;4.03;;
23148;SDS011;11743;51.228;22.498;2022-08-03T00:31:10;6.63;;;3.78;;
23148;SDS011;11743;51.228;22.498;2022-08-03T00:31:33;7.00;;;3.80;;
23148;SDS011;11743;51.228;22.498;2022-08-03T00:32:13;6.65;;;4.30;;
23148;SDS011;11743;51.228;22.498;2022-08-03T00:32:36;6.43;;;4.10;;
23148;SDS011;11743;51.228;22.498;2022-08-03T00:33:05;6.30;;;4.05;;
23148;SDS011;11743;51.228;22.498;2022-08-03T00:33:28;5.72;;;4.15;;
23148;SDS011;11743;51.228;22.498;2022-08-03T00:34:10;5.78;;;3.90;;
23148;SDS011;11743;51.228;22.498;2022-08-03T00:34:33;6.45;;;4.20;;
23148;SDS011;11743;51.228;22.498;2022-08-03T00:35:15;7.72;;;3.92;;
23148;SDS011;11743;51.228;22.498;2022-08-03T00:35:57;6.18;;;4.07;;
23148;SDS011;11743;51.228;22.498;2022-08-03T00:36:19;5.80;;;4.07;;
23148;SDS011;11743;51.228;22.498;2022-08-03T00:36:40;5.95;;;3.70;;
23148;SDS011;11743;51.228;22.498;2022-08-03T00:37:02;5.75;;;3.97;;
23148;SDS011;11743;51.228;22.498;2022-08-03T00:37:24;6.20;;;4.30;;
23148;SDS011;11743;51.228;22.498;2022-08-03T00:38:02;5.38;;;3.88;;
23148;SDS011;11743;51.228;22.498;2022-08-03T00:38:24;5.72;;;3.88;;
23148;SDS011;11743;51.228;22.498;2022-08-03T00:38:46;6.10;;;4.00;;
23148;SDS011;11743;51.228;22.498;2022-08-03T00:39:08;5.78;;;4.10;;
23148;SDS011;11743;51.228;22.498;2022-08-03T00:39:30;7.38;;;4.10;;
23148;SDS011;11743;51.228;22.498;2022-08-03T00:39:52;6.65;;;3.95;;
23148;SDS011;11743;51.228;22.498;2022-08-03T00:40:20;7.20;;;4.20;;
23148;SDS011;11743;51.228;22.498;2022-08-03T00:40:42;6.22;;;4.10;;
23148;SDS011;11743;51.228;22.498;2022-08-03T00:41:04;5.13;;;3.88;;
23148;SDS011;11743;51.228;22.498;2022-08-03T00:41:26;8.75;;;3.95;;
23148;SDS011;11743;51.228;22.498;2022-08-03T00:41:48;5.40;;;3.65;;
23148;SDS011;11743;51.228;22.498;2022-08-03T00:42:09;4.75;;;3.55;;
23148;SDS011;11743;51.228;22.498;2022-08-03T00:42:31;5.05;;;3.88;;
23148;SDS011;11743;51.228;22.498;2022-08-03T00:42:54;5.45;;;4.25;;
23148;SDS011;11743;51.228;22.498;2022-08-03T00:43:23;8.30;;;4.13;;
23148;SDS011;11743;51.228;22.498;2022-08-03T00:43:47;7.20;;;4.07;;
23148;SDS011;11743;51.228;22.498;2022-08-03T00:44:08;7.07;;;4.07;;
23148;SDS011;11743;51.228;22.498;2022-08-03T00:44:30;7.38;;;4.32;;
23148;SDS011;11743;51.228;22.498;2022-08-03T00:44:59;5.88;;;3.97;;
23148;SDS011;11743;51.228;22.498;2022-08-03T00:45:21;5.22;;;3.97;;
23148;SDS011;11743;51.228;22.498;2022-08-03T00:45:53;6.63;;;4.20;;
23148;SDS011;11743;51.228;22.498;2022-08-03T00:46:15;8.15;;;4.35;;
23148;SDS011;11743;51.228;22.498;2022-08-03T00:46:41;7.25;;;4.20;;
23148;SDS011;11743;51.228;22.498;2022-08-03T00:47:03;6.20;;;4.05;;
23148;SDS011;11743;51.228;22.498;2022-08-03T00:47:25;5.97;;;4.30;;
23148;SDS011;11743;51.228;22.498;2022-08-03T00:47:47;5.30;;;3.97;;
23148;SDS011;11743;51.228;22.498;2022-08-03T00:48:10;7.65;;;4.32;;
23148;SDS011;11743;51.228;22.498;2022-08-03T00:48:52;5.95;;;4.45;;
23148;SDS011;11743;51.228;22.498;2022-08-03T00:49:14;5.60;;;4.13;;
23148;SDS011;11743;51.228;22.498;2022-08-03T00:49:39;4.65;;;3.92;;
23148;SDS011;11743;51.228;22.498;2022-08-03T00:50:02;5.38;;;4.13;;
23148;SDS011;11743;51.228;22.498;2022-08-03T00:50:25;5.65;;;4.50;;
23148;SDS011;11743;51.228;22.498;2022-08-03T00:50:48;7.70;;;4.55;;
23148;SDS011;11743;51.228;22.498;2022-08-03T00:51:14;7.10;;;4.20;;
23148;SDS011;11743;51.228;22.498;2022-08-03T00:51:36;4.95;;;4.05;;
23148;SDS011;11743;51.228;22.498;2022-08-03T00:51:58;5.88;;;4.38;;
23148;SDS011;11743;51.228;22.498;2022-08-03T00:52:29;8.35;;;4.47;;
23148;SDS011;11743;51.228;22.498;2022-08-03T00:52:52;5.93;;;4.43;;
23148;SDS011;11743;51.228;22.498;2022-08-03T00:53:18;6.18;;;4.43;;
23148;SDS011;11743;51.228;22.498;2022-08-03T00:53:39;6.60;;;4.30;;
23148;SDS011;11743;51.228;22.498;2022-08-03T00:54:02;6.90;;;4.72;;
23148;SDS011;11743;51.228;22.498;2022-08-03T00:54:24;5.75;;;4.57;;
23148;SDS011;11743;51.228;22.498;2022-08-03T00:54:46;5.55;;;4.30;;
23148;SDS011;11743;51.228;22.498;2022-08-03T00:55:09;6.35;;;4.20;;
23148;SDS011;11743;51.228;22.498;2022-08-03T00:55:32;6.65;;;4.68;;
23148;SDS011;11743;51.228;22.498;2022-08-03T00:55:56;7.03;;;4.90;;
23148;SDS011;11743;51.228;22.498;2022-08-03T00:56:18;5.97;;;4.90;;
23148;SDS011;11743;51.228;22.498;2022-08-03T00:56:40;7.78;;;4.88;;
23148;SDS011;11743;51.228;22.498;2022-08-03T00:57:20;6.97;;;4.85;;
23148;SDS011;11743;51.228;22.498;2022-08-03T00:57:42;8.20;;;4.78;;
23148;SDS011;11743;51.228;22.498;2022-08-03T00:58:04;5.95;;;4.72;;
23148;SDS011;11743;51.228;22.498;2022-08-03T00:58:29;6.47;;;4.93;;
23148;SDS011;11743;51.228;22.498;2022-08-03T00:58:51;8.27;;;5.10;;
23148;SDS011;11743;51.228;22.498;2022-08-03T00:59:17;6.35;;;4.70;;
23148;SDS011;11743;51.228;22.498;2022-08-03T00:59:39;6.47;;;4.80;;
23148;SDS011;11743;51.228;22.498;2022-08-03T01:00:04;6.82;;;4.70;;
23148;SDS011;11743;51.228;22.498;2022-08-03T01:00:27;6.85;;;4.30;;
23148;SDS011;11743;51.228;22.498;2022-08-03T01:00:49;6.28;;;4.35;;
23148;SDS011;11743;51.228;22.498;2022-08-03T01:01:12;6.18;;;4.50;;
23148;SDS011;11743;51.228;22.498;2022-08-03T01:01:34;6.72;;;4.60;;
23148;SDS011;11743;51.228;22.498;2022-08-03T01:01:57;6.70;;;4.60;;
23148;SDS011;11743;51.228;22.498;2022-08-03T01:02:19;6.45;;;4.43;;
23148;SDS011;11743;51.228;22.498;2022-08-03T01:02:41;5.55;;;4.45;;
23148;SDS011;11743;51.228;22.498;2022-08-03T01:03:07;5.97;;;4.10;;
23148;SDS011;11743;51.228;22.498;2022-08-03T01:03:29;5.57;;;4.60;;
23148;SDS011;11743;51.228;22.498;2022-08-03T01:03:51;7.20;;;4.57;;
23148;SDS011;11743;51.228;22.498;2022-08-03T01:04:13;6.93;;;4.70;;
23148;SDS011;11743;51.228;22.498;2022-08-03T01:04:35;8.05;;;4.53;;
23148;SDS011;11743;51.228;22.498;2022-08-03T01:04:57;6.35;;;4.53;;
23148;SDS011;11743;51.228;22.498;2022-08-03T01:05:21;6.22;;;4.40;;
23148;SDS011;11743;51.228;22.498;2022-08-03T01:06:42;6.15;;;4.88;;
23148;SDS011;11743;51.228;22.498;2022-08-03T01:08:34;6.55;;;4.38;;
23148;SDS011;11743;51.228;22.498;2022-08-03T01:10:38;7.20;;;4.60;;
23148;SDS011;11743;51.228;22.498;2022-08-03T01:11:48;6.82;;;4.88;;
23148;SDS011;11743;51.228;22.498;2022-08-03T01:12:23;7.78;;;4.57;;
23148;SDS011;11743;51.228;22.498;2022-08-03T01:12:59;7.10;;;4.82;;
23148;SDS011;11743;51.228;22.498;2022-08-03T01:14:50;7.55;;;4.95;;
23148;SDS011;11743;51.228;22.498;2022-08-03T01:17:11;8.18;;;4.80;;
23148;SDS011;11743;51.228;22.498;2022-08-03T01:17:50;5.45;;;4.45;;
23148;SDS011;11743;51.228;22.498;2022-08-03T01:19:25;7.10;;;4.95;;
23148;SDS011;11743;51.228;22.498;2022-08-03T01:20:03;7.65;;;5.00;;
23148;SDS011;11743;51.228;22.498;2022-08-03T01:20:31;9.73;;;4.60;;
23148;SDS011;11743;51.228;22.498;2022-08-03T01:20:57;6.20;;;4.80;;
23148;SDS011;11743;51.228;22.498;2022-08-03T01:21:28;5.95;;;4.68;;
23148;SDS011;11743;51.228;22.498;2022-08-03T01:23:25;6.30;;;4.38;;
23148;SDS011;11743;51.228;22.498;2022-08-03T01:24:16;7.72;;;4.70;;
23148;SDS011;11743;51.228;22.498;2022-08-03T01:26:41;7.85;;;5.00;;
23148;SDS011;11743;51.228;22.498;2022-08-03T01:27:33;5.93;;;4.50;;
23148;SDS011;11743;51.228;22.498;2022-08-03T01:28:21;6.35;;;4.70;;
23148;SDS011;11743;51.228;22.498;2022-08-03T01:30:05;5.60;;;4.40;;
23148;SDS011;11743;51.228;22.498;2022-08-03T01:30:30;8.10;;;4.70;;
23148;SDS011;11743;51.228;22.498;2022-08-03T01:30:55;6.07;;;4.47;;
23148;SDS011;11743;51.228;22.498;2022-08-03T01:31:38;8.63;;;4.60;;
23148;SDS011;11743;51.228;22.498;2022-08-03T01:32:24;9.23;;;4.80;;
23148;SDS011;11743;51.228;22.498;2022-08-03T01:33:18;7.60;;;4.43;;
23148;SDS011;11743;51.228;22.498;2022-08-03T01:33:45;6.85;;;4.85;;
23148;SDS011;11743;51.228;22.498;2022-08-03T01:34:13;5.20;;;4.33;;
23148;SDS011;11743;51.228;22.498;2022-08-03T01:34:40;6.38;;;4.82;;
23148;SDS011;11743;51.228;22.498;2022-08-03T01:35:16;5.28;;;4.38;;
23148;SDS011;11743;51.228;22.498;2022-08-03T01:36:25;5.13;;;4.22;;
23148;SDS011;11743;51.228;22.498;2022-08-03T01:37:00;6.07;;;4.50;;
23148;SDS011;11743;51.228;22.498;2022-08-03T01:37:28;6.30;;;4.50;;
23148;SDS011;11743;51.228;22.498;2022-08-03T01:38:02;6.47;;;4.50;;
23148;SDS011;11743;51.228;22.498;2022-08-03T01:39:03;7.82;;;4.72;;
23148;SDS011;11743;51.228;22.498;2022-08-03T01:39:29;7.13;;;5.00;;
23148;SDS011;11743;51.228;22.498;2022-08-03T01:39:54;7.10;;;4.85;;
23148;SDS011;11743;51.228;22.498;2022-08-03T01:40:18;6.35;;;4.88;;
23148;SDS011;11743;51.228;22.498;2022-08-03T01:40:43;7.50;;;5.25;;
23148;SDS011;11743;51.228;22.498;2022-08-03T01:41:08;6.50;;;5.43;;
23148;SDS011;11743;51.228;22.498;2022-08-03T01:41:54;6.22;;;4.90;;
23148;SDS011;11743;51.228;22.498;2022-08-03T01:42:21;7.03;;;4.93;;
23148;SDS011;11743;51.228;22.498;2022-08-03T01:42:45;7.85;;;5.00;;
23148;SDS011;11743;51.228;22.498;2022-08-03T01:43:09;6.68;;;4.90;;
23148;SDS011;11743;51.228;22.498;2022-08-03T01:43:56;8.88;;;5.00;;
23148;SDS011;11743;51.228;22.498;2022-08-03T01:44:40;5.72;;;4.20;;
23148;SDS011;11743;51.228;22.498;2022-08-03T01:45:04;6.50;;;4.68;;
23148;SDS011;11743;51.228;22.498;2022-08-03T01:45:29;7.40;;;4.05;;
23148;SDS011;11743;51.228;22.498;2022-08-03T01:45:55;6.30;;;4.28;;
23148;SDS011;11743;51.228;22.498;2022-08-03T01:46:18;5.03;;;4.20;;
23148;SDS011;11743;51.228;22.498;2022-08-03T01:46:41;5.72;;;4.25;;
23148;SDS011;11743;51.228;22.498;2022-08-03T01:47:09;7.35;;;4.40;;
23148;SDS011;11743;51.228;22.498;2022-08-03T01:47:32;8.07;;;4.60;;
23148;SDS011;11743;51.228;22.498;2022-08-03T01:47:55;5.63;;;4.15;;
23148;SDS011;11743;51.228;22.498;2022-08-03T01:48:19;6.32;;;3.85;;
23148;SDS011;11743;51.228;22.498;2022-08-03T01:48:42;6.25;;;4.20;;
23148;SDS011;11743;51.228;22.498;2022-08-03T01:49:10;7.47;;;4.20;;
23148;SDS011;11743;51.228;22.498;2022-08-03T01:49:42;5.63;;;3.93;;
23148;SDS011;11743;51.228;22.498;2022-08-03T01:50:06;6.30;;;4.00;;
23148;SDS011;11743;51.228;22.498;2022-08-03T01:50:29;6.47;;;4.22;;
23148;SDS011;11743;51.228;22.498;2022-08-03T01:50:54;7.53;;;4.07;;
23148;SDS011;11743;51.228;22.498;2022-08-03T01:51:17;6.72;;;3.70;;
23148;SDS011;11743;51.228;22.498;2022-08-03T01:51:41;6.13;;;3.60;;
23148;SDS011;11743;51.228;22.498;2022-08-03T01:52:23;4.50;;;3.78;;
23148;SDS011;11743;51.228;22.498;2022-08-03T01:52:46;4.85;;;4.25;;
23148;SDS011;11743;51.228;22.498;2022-08-03T01:53:09;5.63;;;4.00;;
23148;SDS011;11743;51.228;22.498;2022-08-03T01:53:34;4.70;;;4.20;;
23148;SDS011;11743;51.228;22.498;2022-08-03T01:53:58;5.80;;;4.10;;
23148;SDS011;11743;51.228;22.498;2022-08-03T01:54:22;6.10;;;4.03;;
23148;SDS011;11743;51.228;22.498;2022-08-03T01:54:45;5.40;;;3.88;;
23148;SDS011;11743;51.228;22.498;2022-08-03T01:55:10;7.55;;;4.07;;
23148;SDS011;11743;51.228;22.498;2022-08-03T01:55:33;6.53;;;4.13;;
23148;SDS011;11743;51.228;22.498;2022-08-03T01:55:58;6.72;;;4.30;;
23148;SDS011;11743;51.228;22.498;2022-08-03T01:56:22;5.03;;;4.05;;
23148;SDS011;11743;51.228;22.498;2022-08-03T01:56:46;5.35;;;3.83;;
23148;SDS011;11743;51.228;22.498;2022-08-03T01:57:11;5.28;;;3.80;;
23148;SDS011;11743;51.228;22.498;2022-08-03T01:57:34;4.75;;;3.92;;
23148;SDS011;11743;51.228;22.498;2022-08-03T01:58:18;6.03;;;3.95;;
23148;SDS011;11743;51.228;22.498;2022-08-03T01:58:41;7.75;;;3.92;;
23148;SDS011;11743;51.228;22.498;2022-08-03T01:59:06;7.93;;;3.92;;
23148;SDS011;11743;51.228;22.498;2022-08-03T01:59:29;5.82;;;3.60;;
23148;SDS011;11743;51.228;22.498;2022-08-03T01:59:55;5.57;;;3.92;;
23148;SDS011;11743;51.228;22.498;2022-08-03T02:00:20;5.55;;;3.90;;
23148;SDS011;11743;51.228;22.498;2022-08-03T02:00:43;5.45;;;3.97;;
23148;SDS011;11743;51.228;22.498;2022-08-03T02:01:06;5.85;;;4.03;;
23148;SDS011;11743;51.228;22.498;2022-08-03T02:01:30;6.22;;;4.22;;
23148;SDS011;11743;51.228;22.498;2022-08-03T02:02:13;4.28;;;3.60;;
23148;SDS011;11743;51.228;22.498;2022-08-03T02:02:53;5.78;;;3.95;;
23148;SDS011;11743;51.228;22.498;2022-08-03T02:03:17;5.30;;;3.95;;
23148;SDS011;11743;51.228;22.498;2022-08-03T02:03:40;5.47;;;3.70;;
23148;SDS011;11743;51.228;22.498;2022-08-03T02:04:21;5.63;;;3.80;;
23148;SDS011;11743;51.228;22.498;2022-08-03T02:04:44;4.53;;;3.45;;
23148;SDS011;11743;51.228;22.498;2022-08-03T02:05:08;4.72;;;3.75;;
23148;SDS011;11743;51.228;22.498;2022-08-03T02:05:31;5.82;;;4.03;;
23148;SDS011;11743;51.228;22.498;2022-08-03T02:05:54;6.13;;;3.78;;
23148;SDS011;11743;51.228;22.498;2022-08-03T02:06:38;5.88;;;4.00;;
23148;SDS011;11743;51.228;22.498;2022-08-03T02:07:21;5.17;;;3.57;;
23148;SDS011;11743;51.228;22.498;2022-08-03T02:07:45;5.15;;;3.97;;
23148;SDS011;11743;51.228;22.498;2022-08-03T02:08:09;5.75;;;3.63;;
23148;SDS011;11743;51.228;22.498;2022-08-03T02:08:34;5.65;;;3.50;;
23148;SDS011;11743;51.228;22.498;2022-08-03T02:08:56;4.70;;;3.75;;
23148;SDS011;11743;51.228;22.498;2022-08-03T02:09:20;5.00;;;3.67;;
23148;SDS011;11743;51.228;22.498;2022-08-03T02:09:43;3.90;;;3.50;;
23148;SDS011;11743;51.228;22.498;2022-08-03T02:10:08;4.85;;;3.58;;
23148;SDS011;11743;51.228;22.498;2022-08-03T02:10:34;4.95;;;3.20;;
23148;SDS011;11743;51.228;22.498;2022-08-03T02:10:57;4.53;;;3.25;;
23148;SDS011;11743;51.228;22.498;2022-08-03T02:11:21;4.47;;;3.50;;
23148;SDS011;11743;51.228;22.498;2022-08-03T02:11:43;4.32;;;3.42;;
23148;SDS011;11743;51.228;22.498;2022-08-03T02:12:10;4.75;;;3.30;;
23148;SDS011;11743;51.228;22.498;2022-08-03T02:12:35;4.80;;;3.50;;
23148;SDS011;11743;51.228;22.498;2022-08-03T02:12:58;5.20;;;3.60;;
23148;SDS011;11743;51.228;22.498;2022-08-03T02:13:22;3.97;;;3.33;;
23148;SDS011;11743;51.228;22.498;2022-08-03T02:13:45;4.78;;;3.20;;
23148;SDS011;11743;51.228;22.498;2022-08-03T02:14:11;3.72;;;3.20;;
23148;SDS011;11743;51.228;22.498;2022-08-03T02:14:35;4.70;;;3.30;;
23148;SDS011;11743;51.228;22.498;2022-08-03T02:14:59;5.55;;;3.50;;
23148;SDS011;11743;51.228;22.498;2022-08-03T02:15:23;5.85;;;3.60;;
23148;SDS011;11743;51.228;22.498;2022-08-03T02:15:49;3.75;;;3.28;;
23148;SDS011;11743;51.228;22.498;2022-08-03T02:16:13;5.40;;;3.40;;
23148;SDS011;11743;51.228;22.498;2022-08-03T02:16:36;3.90;;;3.28;;
23148;SDS011;11743;51.228;22.498;2022-08-03T02:16:58;4.78;;;3.35;;
23148;SDS011;11743;51.228;22.498;2022-08-03T02:17:23;6.47;;;3.40;;
23148;SDS011;11743;51.228;22.498;2022-08-03T02:18:00;4.63;;;3.20;;
23148;SDS011;11743;51.228;22.498;2022-08-03T02:18:25;4.20;;;3.15;;
23148;SDS011;11743;51.228;22.498;2022-08-03T02:18:48;4.10;;;3.10;;
23148;SDS011;11743;51.228;22.498;2022-08-03T02:19:11;4.90;;;3.30;;
23148;SDS011;11743;51.228;22.498;2022-08-03T02:19:34;4.32;;;3.28;;
23148;SDS011;11743;51.228;22.498;2022-08-03T02:19:59;3.53;;;3.15;;
23148;SDS011;11743;51.228;22.498;2022-08-03T02:20:22;4.43;;;3.25;;
23148;SDS011;11743;51.228;22.498;2022-08-03T02:20:47;5.43;;;3.40;;
23148;SDS011;11743;51.228;22.498;2022-08-03T02:21:13;3.38;;;3.08;;
23148;SDS011;11743;51.228;22.498;2022-08-03T02:21:55;4.22;;;3.30;;
23148;SDS011;11743;51.228;22.498;2022-08-03T02:22:22;6.22;;;3.50;;
23148;SDS011;11743;51.228;22.498;2022-08-03T02:22:45;4.82;;;3.00;;
23148;SDS011;11743;51.228;22.498;2022-08-03T02:23:07;4.82;;;3.15;;
23148;SDS011;11743;51.228;22.498;2022-08-03T02:23:30;5.22;;;3.30;;
23148;SDS011;11743;51.228;22.498;2022-08-03T02:23:52;4.78;;;3.53;;
23148;SDS011;11743;51.228;22.498;2022-08-03T02:24:14;4.85;;;3.50;;
23148;SDS011;11743;51.228;22.498;2022-08-03T02:24:36;5.05;;;3.28;;
23148;SDS011;11743;51.228;22.498;2022-08-03T02:24:58;3.60;;;3.10;;
23148;SDS011;11743;51.228;22.498;2022-08-03T02:25:21;4.07;;;3.30;;
23148;SDS011;11743;51.228;22.498;2022-08-03T02:25:43;3.90;;;3.15;;
23148;SDS011;11743;51.228;22.498;2022-08-03T02:26:13;3.63;;;3.10;;
23148;SDS011;11743;51.228;22.498;2022-08-03T02:26:37;4.40;;;2.97;;
23148;SDS011;11743;51.228;22.498;2022-08-03T02:27:02;4.43;;;3.25;;
23148;SDS011;11743;51.228;22.498;2022-08-03T02:27:28;4.05;;;3.08;;
23148;SDS011;11743;51.228;22.498;2022-08-03T02:27:55;5.45;;;3.28;;
23148;SDS011;11743;51.228;22.498;2022-08-03T02:28:21;5.32;;;3.63;;
23148;SDS011;11743;51.228;22.498;2022-08-03T02:28:49;4.57;;;3.40;;
23148;SDS011;11743;51.228;22.498;2022-08-03T02:29:17;4.78;;;3.20;;
23148;SDS011;11743;51.228;22.498;2022-08-03T02:30:06;3.95;;;3.50;;
23148;SDS011;11743;51.228;22.498;2022-08-03T02:30:32;4.78;;;3.33;;
23148;SDS011;11743;51.228;22.498;2022-08-03T02:31:02;6.00;;;3.40;;
23148;SDS011;11743;51.228;22.498;2022-08-03T02:31:27;5.70;;;3.50;;
23148;SDS011;11743;51.228;22.498;2022-08-03T02:31:53;4.97;;;3.25;;
23148;SDS011;11743;51.228;22.498;2022-08-03T02:32:22;5.60;;;3.30;;
23148;SDS011;11743;51.228;22.498;2022-08-03T02:32:51;4.45;;;3.40;;
23148;SDS011;11743;51.228;22.498;2022-08-03T02:33:17;4.20;;;3.45;;
23148;SDS011;11743;51.228;22.498;2022-08-03T02:33:49;3.80;;;3.30;;
23148;SDS011;11743;51.228;22.498;2022-08-03T02:34:13;5.78;;;3.60;;
23148;SDS011;11743;51.228;22.498;2022-08-03T02:34:37;4.40;;;3.72;;
23148;SDS011;11743;51.228;22.498;2022-08-03T02:35:00;3.50;;;3.10;;
23148;SDS011;11743;51.228;22.498;2022-08-03T02:35:26;3.67;;;3.20;;
23148;SDS011;11743;51.228;22.498;2022-08-03T02:35:50;4.32;;;3.22;;
23148;SDS011;11743;51.228;22.498;2022-08-03T02:36:14;5.28;;;3.60;;
23148;SDS011;11743;51.228;22.498;2022-08-03T02:36:43;4.32;;;3.40;;
23148;SDS011;11743;51.228;22.498;2022-08-03T02:37:09;4.72;;;3.28;;
23148;SDS011;11743;51.228;22.498;2022-08-03T02:37:34;4.60;;;3.15;;
23148;SDS011;11743;51.228;22.498;2022-08-03T02:38:06;6.75;;;3.20;;
23148;SDS011;11743;51.228;22.498;2022-08-03T02:38:31;4.13;;;3.08;;
23148;SDS011;11743;51.228;22.498;2022-08-03T02:38:56;6.95;;;3.50;;
23148;SDS011;11743;51.228;22.498;2022-08-03T02:39:20;6.50;;;3.50;;
23148;SDS011;11743;51.228;22.498;2022-08-03T02:39:45;5.28;;;3.40;;
23148;SDS011;11743;51.228;22.498;2022-08-03T02:40:08;5.20;;;3.30;;
23148;SDS011;11743;51.228;22.498;2022-08-03T02:40:32;5.35;;;3.88;;
23148;SDS011;11743;51.228;22.498;2022-08-03T02:40:54;4.68;;;3.47;;
23148;SDS011;11743;51.228;22.498;2022-08-03T02:41:20;6.57;;;3.50;;
23148;SDS011;11743;51.228;22.498;2022-08-03T02:41:49;4.60;;;3.40;;
23148;SDS011;11743;51.228;22.498;2022-08-03T02:42:13;5.50;;;3.40;;
23148;SDS011;11743;51.228;22.498;2022-08-03T02:42:37;4.80;;;3.40;;
23148;SDS011;11743;51.228;22.498;2022-08-03T02:43:02;4.20;;;3.20;;
23148;SDS011;11743;51.228;22.498;2022-08-03T02:43:29;3.80;;;3.17;;
23148;SDS011;11743;51.228;22.498;2022-08-03T02:44:12;4.65;;;3.22;;
23148;SDS011;11743;51.228;22.498;2022-08-03T02:44:34;7.63;;;3.60;;
23148;SDS011;11743;51.228;22.498;2022-08-03T02:44:59;5.15;;;3.28;;
23148;SDS011;11743;51.228;22.498;2022-08-03T02:45:25;4.75;;;3.42;;
23148;SDS011;11743;51.228;22.498;2022-08-03T02:45:49;6.05;;;3.30;;
23148;SDS011;11743;51.228;22.498;2022-08-03T02:46:13;4.82;;;2.95;;
23148;SDS011;11743;51.228;22.498;2022-08-03T02:46:41;3.90;;;3.50;;
23148;SDS011;11743;51.228;22.498;2022-08-03T02:47:06;4.32;;;3.42;;
23148;SDS011;11743;51.228;22.498;2022-08-03T02:47:31;4.45;;;3.13;;
23148;SDS011;11743;51.228;22.498;2022-08-03T02:48:16;4.82;;;3.05;;
23148;SDS011;11743;51.228;22.498;2022-08-03T02:48:40;5.10;;;3.15;;